createdAt,value
2022-12-17T00:00:31.725Z,0.20
2022-12-17T00:02:59.028Z,0.20
2022-12-17T00:05:25.690Z,0.20
2022-12-17T00:08:01.320Z,0.20
2022-12-17T00:10:27.855Z,0.30
2022-12-17T00:12:56.300Z,0.25
2022-12-17T00:15:23.722Z,0.20
2022-12-17T00:17:50.267Z,0.20
2022-12-17T00:20:16.790Z,0.20
2022-12-17T00:22:43.287Z,0.20
2022-12-17T00:25:09.996Z,0.30
2022-12-17T00:27:36.499Z,0.20
2022-12-17T00:30:03.468Z,0.20
2022-12-17T00:32:30.056Z,0.20
2022-12-17T00:34:56.643Z,0.20
2022-12-17T00:37:23.373Z,0.20
2022-12-17T00:39:50.944Z,0.20
2022-12-17T00:42:20.078Z,0.20
2022-12-17T00:44:46.783Z,0.20
2022-12-17T00:47:13.477Z,0.20
2022-12-17T00:49:40.068Z,0.20
2022-12-17T00:52:06.591Z,0.20
2022-12-17T00:54:33.065Z,0.20
2022-12-17T00:56:59.579Z,0.20
2022-12-17T00:59:26.061Z,0.20
2022-12-17T01:01:52.621Z,0.20
2022-12-17T01:04:20.323Z,0.28
2022-12-17T01:06:46.899Z,0.20
2022-12-17T01:09:13.459Z,0.20
2022-12-17T01:11:40.020Z,0.20
2022-12-17T01:14:06.618Z,0.20
2022-12-17T01:16:33.628Z,0.20
2022-12-17T01:19:00.462Z,0.30
2022-12-17T01:21:26.934Z,0.20
2022-12-17T01:23:53.442Z,0.20
2022-12-17T01:26:19.980Z,0.20
2022-12-17T01:28:46.532Z,0.30
2022-12-17T01:31:13.136Z,0.22
2022-12-17T01:33:40.002Z,0.20
2022-12-17T01:36:06.867Z,0.28
2022-12-17T01:38:33.469Z,0.28
2022-12-17T01:41:00.107Z,0.20
2022-12-17T01:43:38.258Z,0.20
2022-12-17T01:46:05.118Z,0.20
2022-12-17T01:48:42.516Z,0.20
2022-12-17T01:51:09.546Z,0.20
2022-12-17T01:53:41.676Z,0.20
2022-12-17T01:56:10.848Z,0.20
2022-12-17T01:58:38.023Z,0.20
2022-12-17T02:01:04.690Z,0.20
2022-12-17T02:03:31.265Z,0.20
2022-12-17T02:06:03.883Z,0.20
2022-12-17T02:08:38.831Z,0.28
2022-12-17T02:11:32.467Z,0.25
2022-12-17T02:14:06.988Z,0.20
2022-12-17T02:16:41.706Z,0.20
2022-12-17T02:19:36.935Z,0.20
2022-12-17T02:22:18.849Z,0.20
2022-12-17T02:25:16.376Z,0.20
2022-12-17T02:27:43.373Z,0.20
2022-12-17T02:30:10.602Z,0.20
2022-12-17T02:32:40.572Z,0.20
2022-12-17T02:35:17.213Z,0.20
2022-12-17T02:37:50.131Z,0.20
2022-12-17T02:40:19.066Z,0.20
2022-12-17T02:42:47.246Z,0.20
2022-12-17T02:45:15.924Z,0.20
2022-12-17T02:47:43.317Z,0.20
2022-12-17T02:50:11.461Z,0.20
2022-12-17T02:52:42.209Z,0.30
2022-12-17T02:55:09.069Z,0.20
2022-12-17T02:57:35.597Z,0.20
2022-12-17T03:00:04.800Z,0.20
2022-12-17T03:02:31.371Z,0.20
2022-12-17T03:05:21.187Z,0.30
2022-12-17T03:07:47.683Z,0.20
2022-12-17T03:10:14.260Z,0.30
2022-12-17T03:12:40.770Z,0.20
2022-12-17T03:15:07.606Z,0.30
2022-12-17T03:17:34.131Z,0.30
2022-12-17T03:20:00.583Z,0.20
2022-12-17T03:22:27.105Z,0.20
2022-12-17T03:24:53.614Z,0.28
2022-12-17T03:27:20.127Z,0.30
2022-12-17T03:29:46.588Z,0.30
2022-12-17T03:32:13.104Z,0.30
2022-12-17T03:34:39.617Z,0.20
2022-12-17T03:37:06.911Z,0.30
2022-12-17T03:39:33.421Z,0.20
2022-12-17T03:42:00.506Z,0.20
2022-12-17T03:44:27.200Z,0.20
2022-12-17T03:46:53.671Z,0.20
2022-12-17T03:49:20.213Z,0.20
2022-12-17T03:51:46.676Z,0.22
2022-12-17T03:54:13.204Z,0.20
2022-12-17T03:56:39.722Z,0.22
2022-12-17T03:59:06.228Z,0.28
2022-12-17T04:01:32.741Z,0.30
2022-12-17T04:03:59.352Z,0.20
2022-12-17T04:06:25.880Z,0.20
2022-12-17T04:08:52.362Z,0.20
2022-12-17T04:11:19.037Z,0.20
2022-12-17T04:13:45.926Z,0.20
2022-12-17T04:16:12.767Z,0.20
2022-12-17T04:18:39.313Z,0.30
2022-12-17T04:21:06.047Z,0.20
2022-12-17T04:23:32.748Z,0.20
2022-12-17T04:25:59.379Z,0.20
2022-12-17T04:28:25.941Z,0.30
2022-12-17T04:30:52.444Z,0.20
2022-12-17T04:33:19.071Z,0.28
2022-12-17T04:35:45.603Z,0.20
2022-12-17T04:38:12.107Z,0.28
2022-12-17T04:40:38.634Z,0.20
2022-12-17T04:43:06.909Z,0.20
2022-12-17T04:45:33.456Z,0.30
2022-12-17T04:48:05.257Z,0.30
2022-12-17T04:50:31.823Z,0.20
2022-12-17T04:53:06.559Z,0.20
2022-12-17T04:55:33.034Z,0.20
2022-12-17T04:58:04.456Z,0.20
2022-12-17T05:00:30.909Z,0.30
2022-12-17T05:03:04.901Z,0.30
2022-12-17T05:05:31.524Z,0.30
2022-12-17T05:07:58.365Z,0.20
2022-12-17T05:10:24.856Z,0.20
2022-12-17T05:12:58.955Z,0.25
2022-12-17T05:15:25.502Z,0.30
2022-12-17T05:17:51.991Z,0.20
2022-12-17T05:20:18.512Z,0.30
2022-12-17T05:22:45.024Z,0.30
2022-12-17T05:25:11.877Z,0.20
2022-12-17T05:27:38.345Z,0.20
2022-12-17T05:30:05.322Z,0.30
2022-12-17T05:32:31.812Z,0.20
2022-12-17T05:34:58.375Z,0.30
2022-12-17T05:37:24.997Z,0.20
2022-12-17T05:39:51.550Z,0.30
2022-12-17T05:42:18.084Z,0.25
2022-12-17T05:44:44.604Z,0.25
2022-12-17T05:47:11.104Z,0.28
2022-12-17T05:49:37.639Z,0.30
2022-12-17T05:52:04.227Z,0.20
2022-12-17T05:54:30.795Z,0.30
2022-12-17T05:56:57.323Z,0.30
2022-12-17T05:59:23.827Z,0.20
2022-12-17T06:01:50.458Z,0.30
2022-12-17T06:04:17.071Z,0.30
2022-12-17T06:06:43.551Z,0.30
2022-12-17T06:09:10.026Z,0.22
2022-12-17T06:11:36.479Z,0.32
2022-12-17T06:14:02.952Z,0.30
2022-12-17T06:16:29.720Z,0.30
2022-12-17T06:18:56.288Z,0.30
2022-12-17T06:21:23.059Z,0.30
2022-12-17T06:23:49.641Z,0.30
2022-12-17T06:26:16.189Z,0.30
2022-12-17T06:28:43.424Z,0.30
2022-12-17T06:31:10.086Z,0.30
2022-12-17T06:33:37.581Z,0.30
2022-12-17T06:36:04.782Z,0.27
2022-12-17T06:38:31.587Z,0.30
2022-12-17T06:41:01.095Z,0.30
2022-12-17T06:43:27.758Z,0.37
2022-12-17T06:45:54.485Z,0.30
2022-12-17T06:48:21.000Z,0.30
2022-12-17T06:50:47.591Z,0.30
2022-12-17T06:53:14.135Z,0.30
2022-12-17T06:55:40.599Z,0.30
2022-12-17T06:58:07.151Z,0.30
2022-12-17T07:00:33.701Z,0.40
2022-12-17T07:03:00.261Z,0.30
2022-12-17T07:05:27.917Z,0.30
2022-12-17T07:07:58.543Z,0.40
2022-12-17T07:10:25.227Z,0.30
2022-12-17T07:12:51.742Z,0.30
2022-12-17T07:15:18.221Z,0.30
2022-12-17T07:17:58.290Z,0.30
2022-12-17T07:20:24.911Z,0.30
2022-12-17T07:22:55.305Z,0.37
2022-12-17T07:25:21.989Z,0.30
2022-12-17T07:27:55.826Z,0.40
2022-12-17T07:30:22.349Z,0.40
2022-12-17T07:32:58.464Z,0.40
2022-12-17T07:35:25.026Z,0.30
2022-12-17T07:37:58.964Z,0.40
2022-12-17T07:40:25.579Z,0.30
2022-12-17T07:42:52.071Z,0.30
2022-12-17T07:45:19.732Z,0.30
2022-12-17T07:47:53.576Z,0.40
2022-12-17T07:50:20.114Z,0.40
2022-12-17T07:52:46.575Z,0.40
2022-12-17T07:55:17.951Z,0.40
2022-12-17T07:57:44.816Z,0.40
2022-12-17T08:00:12.202Z,0.40
2022-12-17T08:02:39.027Z,0.40
2022-12-17T08:05:06.064Z,0.40
2022-12-17T08:07:32.553Z,0.40
2022-12-17T08:09:59.010Z,0.30
2022-12-17T08:12:25.537Z,0.47
2022-12-17T08:14:52.053Z,0.50
2022-12-17T08:17:18.604Z,0.40
2022-12-17T08:19:45.473Z,0.40
2022-12-17T08:22:11.984Z,0.40
2022-12-17T08:24:38.601Z,0.40
2022-12-17T08:27:05.092Z,0.40
2022-12-17T08:29:31.680Z,0.40
2022-12-17T08:31:58.218Z,0.40
2022-12-17T08:34:24.745Z,0.40
2022-12-17T08:36:51.255Z,0.40
2022-12-17T08:39:17.828Z,0.40
2022-12-17T08:41:45.239Z,0.40
2022-12-17T08:44:13.108Z,0.40
2022-12-17T08:46:39.603Z,0.30
2022-12-17T08:49:06.144Z,0.30
2022-12-17T08:51:32.797Z,0.40
2022-12-17T08:53:59.393Z,0.30
2022-12-17T08:56:27.959Z,0.30
2022-12-17T08:58:58.811Z,0.40
2022-12-17T09:01:25.853Z,0.30
2022-12-17T09:03:52.393Z,0.30
2022-12-17T09:06:18.895Z,0.30
2022-12-17T09:08:45.978Z,0.30
2022-12-17T09:11:12.736Z,0.30
2022-12-17T09:13:39.384Z,0.37
2022-12-17T09:16:06.321Z,0.33
2022-12-17T09:18:43.963Z,0.30
2022-12-17T09:21:10.551Z,0.40
2022-12-17T09:23:38.680Z,0.30
2022-12-17T09:26:07.612Z,0.30
2022-12-17T09:28:34.140Z,0.30
2022-12-17T09:31:01.256Z,0.40
2022-12-17T09:33:28.193Z,0.30
2022-12-17T09:35:57.015Z,0.30
2022-12-17T09:38:25.694Z,0.30
2022-12-17T09:40:54.054Z,0.30
2022-12-17T09:43:42.387Z,0.30
2022-12-17T09:46:39.953Z,0.37
2022-12-17T09:49:20.540Z,0.30
2022-12-17T09:51:48.173Z,0.30
2022-12-17T09:54:33.283Z,0.30
2022-12-17T09:56:59.916Z,0.40
2022-12-17T09:59:34.412Z,0.30
2022-12-17T10:02:03.512Z,0.30
2022-12-17T10:04:37.539Z,0.30
2022-12-17T10:07:11.390Z,0.30
2022-12-17T10:09:37.954Z,0.30
2022-12-17T10:12:16.504Z,0.30
2022-12-17T10:14:43.186Z,0.30
2022-12-17T10:17:22.171Z,0.30
2022-12-17T10:19:54.596Z,0.30
2022-12-17T10:22:21.869Z,0.30
2022-12-17T10:24:48.365Z,0.30
2022-12-17T10:27:20.069Z,0.28
2022-12-17T10:29:48.840Z,0.30
2022-12-17T10:32:15.401Z,0.30
2022-12-17T10:34:45.986Z,0.30
2022-12-17T10:37:20.659Z,0.30
2022-12-17T10:39:59.399Z,0.30
2022-12-17T10:42:34.466Z,0.30
2022-12-17T10:45:17.596Z,0.35
2022-12-17T10:47:44.377Z,0.30
2022-12-17T10:50:20.445Z,0.28
2022-12-17T10:52:48.922Z,0.30
2022-12-17T10:55:30.024Z,0.30
2022-12-17T11:00:34.968Z,0.30
2022-12-17T11:03:03.869Z,0.30
2022-12-17T11:05:39.848Z,0.20
2022-12-17T11:08:07.128Z,0.30
2022-12-17T11:10:39.491Z,0.30
2022-12-17T11:13:15.659Z,0.30
2022-12-17T11:15:54.164Z,0.30
2022-12-17T11:18:26.477Z,0.30
2022-12-17T11:21:04.206Z,0.25
2022-12-17T11:23:34.822Z,0.20
2022-12-17T11:26:13.451Z,0.30
2022-12-17T11:28:41.287Z,0.25
2022-12-17T11:31:43.164Z,0.30
2022-12-17T11:34:34.368Z,0.30
2022-12-17T11:39:38.163Z,0.30
2022-12-17T11:42:14.773Z,0.30
2022-12-17T11:45:19.389Z,0.30
2022-12-17T11:47:59.396Z,0.30
2022-12-17T11:50:44.045Z,0.30
2022-12-17T11:53:38.237Z,0.28
2022-12-17T11:56:32.704Z,0.30
2022-12-17T11:59:25.294Z,0.30
2022-12-17T12:01:59.902Z,0.30
2022-12-17T12:04:57.298Z,0.30
2022-12-17T12:07:42.722Z,0.40
2022-12-17T12:10:20.906Z,0.30
2022-12-17T12:13:16.256Z,0.30
2022-12-17T12:15:48.315Z,0.20
2022-12-17T12:18:27.455Z,0.22
2022-12-17T12:21:09.638Z,0.20
2022-12-17T12:23:43.008Z,0.28
2022-12-17T12:26:23.691Z,0.30
2022-12-17T12:29:16.410Z,0.20
2022-12-17T12:32:06.627Z,0.30
2022-12-17T12:34:37.626Z,0.22
2022-12-17T12:39:36.635Z,0.30
2022-12-17T12:42:21.281Z,0.30
2022-12-17T12:44:59.224Z,0.30
2022-12-17T12:47:36.744Z,0.30
2022-12-17T12:50:22.221Z,0.20
2022-12-17T12:52:48.951Z,0.30
2022-12-17T12:55:15.660Z,0.20
2022-12-17T12:58:20.992Z,0.20
2022-12-17T13:00:47.503Z,0.20
2022-12-17T13:03:39.611Z,0.20
2022-12-17T13:06:06.734Z,0.10
2022-12-17T13:08:33.222Z,0.10
2022-12-17T13:11:29.476Z,0.10
2022-12-17T13:14:01.214Z,0.10
2022-12-17T13:16:48.505Z,0.10
2022-12-17T13:19:40.939Z,0.10
2022-12-17T13:22:21.994Z,0.10
2022-12-17T13:24:53.304Z,0.10
2022-12-17T13:27:34.832Z,0.10
2022-12-17T13:30:19.451Z,0.10
2022-12-17T13:33:11.823Z,0.20
2022-12-17T13:35:55.035Z,0.10
2022-12-17T13:38:28.819Z,0.10
2022-12-17T13:40:58.037Z,0.10
2022-12-17T13:43:30.867Z,0.20
2022-12-17T13:45:57.618Z,0.10
2022-12-17T13:48:27.121Z,0.10
2022-12-17T13:50:54.907Z,0.10
2022-12-17T13:53:21.409Z,0.10
2022-12-17T13:55:56.472Z,0.10
2022-12-17T13:58:31.498Z,0.10
2022-12-17T14:01:09.782Z,0.10
2022-12-17T14:04:07.607Z,0.10
2022-12-17T14:06:28.722Z,0.10
2022-12-17T14:08:56.919Z,0.10
2022-12-17T14:11:24.033Z,0.10
2022-12-17T14:13:50.557Z,0.10
2022-12-17T14:16:18.391Z,0.10
2022-12-17T14:18:52.015Z,0.13
2022-12-17T14:21:19.804Z,0.10
2022-12-17T14:23:50.113Z,0.10
2022-12-17T14:26:16.888Z,0.20
2022-12-17T14:28:53.520Z,0.10
2022-12-17T14:31:29.462Z,0.10
2022-12-17T14:34:08.386Z,0.20
2022-12-17T14:36:40.980Z,0.10
2022-12-17T14:39:27.343Z,0.20
2022-12-17T14:42:06.684Z,0.20
2022-12-17T14:44:33.824Z,0.20
2022-12-17T14:47:21.684Z,0.20
2022-12-17T14:49:56.235Z,0.20
2022-12-17T14:52:28.083Z,0.20
2022-12-17T14:54:54.622Z,0.20
2022-12-17T14:57:22.904Z,0.20
2022-12-17T14:59:52.582Z,0.20
2022-12-17T15:02:25.322Z,0.20
2022-12-17T15:05:01.433Z,0.30
2022-12-17T15:07:30.112Z,0.20
2022-12-17T15:09:57.462Z,0.25
2022-12-17T15:12:24.917Z,0.22
2022-12-17T15:14:51.485Z,0.22
2022-12-17T15:17:17.966Z,0.30
2022-12-17T15:19:44.552Z,0.30
2022-12-17T15:22:15.959Z,0.30
2022-12-17T15:24:43.837Z,0.20
2022-12-17T15:27:17.151Z,0.30
2022-12-17T15:29:44.088Z,0.30
2022-12-17T15:32:21.828Z,0.30
2022-12-17T15:34:48.640Z,0.22
2022-12-17T15:37:19.751Z,0.30
2022-12-17T15:39:49.069Z,0.22
2022-12-17T15:42:15.613Z,0.30
2022-12-17T15:44:42.247Z,0.30
2022-12-17T15:47:08.796Z,0.30
2022-12-17T15:49:35.273Z,0.30
2022-12-17T15:52:01.848Z,0.30
2022-12-17T15:54:28.377Z,0.30
2022-12-17T15:56:55.591Z,0.30
2022-12-17T15:59:22.513Z,0.30
2022-12-17T16:01:49.214Z,0.32
2022-12-17T16:04:20.247Z,0.30
2022-12-17T16:06:49.652Z,0.30
2022-12-17T16:09:16.216Z,0.30
2022-12-17T16:11:42.908Z,0.30
2022-12-17T16:14:09.409Z,0.30
2022-12-17T16:16:35.938Z,0.30
2022-12-17T16:19:02.550Z,0.30
2022-12-17T16:21:29.096Z,0.30
2022-12-17T16:23:55.581Z,0.30
2022-12-17T16:26:22.119Z,0.40
2022-12-17T16:28:48.640Z,0.40
2022-12-17T16:31:15.866Z,0.40
2022-12-17T16:33:44.016Z,0.30
2022-12-17T16:36:16.375Z,0.30
2022-12-17T16:38:48.606Z,0.30
2022-12-17T16:41:15.961Z,0.40
2022-12-17T16:43:43.013Z,0.40
2022-12-17T16:46:28.680Z,0.30
2022-12-17T16:48:57.135Z,0.40
2022-12-17T16:51:28.818Z,0.30
2022-12-17T16:53:55.908Z,0.30
2022-12-17T16:56:26.724Z,0.33
2022-12-17T16:58:55.073Z,0.30
2022-12-17T17:01:24.094Z,0.40
2022-12-17T17:03:51.025Z,0.37
2022-12-17T17:06:18.605Z,0.30
2022-12-17T17:08:45.300Z,0.30
2022-12-17T17:11:17.775Z,0.30
2022-12-17T17:13:44.647Z,0.40
2022-12-17T17:16:11.951Z,0.40
2022-12-17T17:18:39.938Z,0.37
2022-12-17T17:21:18.425Z,0.40
2022-12-17T17:23:46.240Z,0.30
2022-12-17T17:26:13.452Z,0.30
2022-12-17T17:28:40.717Z,0.30
2022-12-17T17:31:10.667Z,0.40
2022-12-17T17:33:40.375Z,0.30
2022-12-17T17:36:13.348Z,0.30
2022-12-17T17:38:41.080Z,0.30
2022-12-17T17:41:10.956Z,0.40
2022-12-17T17:43:37.597Z,0.40
2022-12-17T17:46:15.319Z,0.40
2022-12-17T17:48:44.655Z,0.30
2022-12-17T17:51:17.818Z,0.40
2022-12-17T17:53:46.180Z,0.40
2022-12-17T17:56:14.946Z,0.40
2022-12-17T17:58:50.188Z,0.40
2022-12-17T18:01:20.444Z,0.50
2022-12-17T18:03:47.324Z,0.40
2022-12-17T18:06:14.783Z,0.40
2022-12-17T18:08:41.995Z,0.40
2022-12-17T18:11:11.344Z,0.40
2022-12-17T18:13:38.567Z,0.50
2022-12-17T18:16:05.249Z,0.40
2022-12-17T18:18:31.873Z,0.40
2022-12-17T18:21:03.728Z,0.40
2022-12-17T18:23:30.241Z,0.30
2022-12-17T18:25:56.782Z,0.40
2022-12-17T18:28:23.276Z,0.40
2022-12-17T18:30:49.805Z,0.40
2022-12-17T18:33:16.376Z,0.40
2022-12-17T18:35:42.890Z,0.40
2022-12-17T18:38:09.442Z,0.37
2022-12-17T18:40:36.013Z,0.40
2022-12-17T18:43:02.556Z,0.40
2022-12-17T18:45:29.389Z,0.40
2022-12-17T18:47:56.077Z,0.40
2022-12-17T18:50:22.645Z,0.40
2022-12-17T18:52:49.189Z,0.40
2022-12-17T18:55:16.006Z,0.40
2022-12-17T18:57:42.610Z,0.40
2022-12-17T19:00:09.858Z,0.40
2022-12-17T19:02:36.514Z,0.40
2022-12-17T19:05:03.414Z,0.40
2022-12-17T19:07:30.293Z,0.37
2022-12-17T19:09:56.839Z,0.40
2022-12-17T19:12:23.416Z,0.40
2022-12-17T19:14:57.951Z,0.40
2022-12-17T19:17:25.488Z,0.40
2022-12-17T19:19:51.992Z,0.40
2022-12-17T19:22:18.671Z,0.40
2022-12-17T19:24:45.359Z,0.47
2022-12-17T19:27:12.920Z,0.40
2022-12-17T19:29:44.956Z,0.40
2022-12-17T19:32:14.251Z,0.30
2022-12-17T19:34:40.778Z,0.40
2022-12-17T19:37:07.316Z,0.40
2022-12-17T19:39:33.808Z,0.40
2022-12-17T19:42:00.291Z,0.40
2022-12-17T19:44:26.787Z,0.40
2022-12-17T19:46:53.353Z,0.40
2022-12-17T19:49:19.923Z,0.40
2022-12-17T19:51:46.449Z,0.40
2022-12-17T19:54:13.899Z,0.40
2022-12-17T19:56:40.786Z,0.40
2022-12-17T19:59:09.499Z,0.40
2022-12-17T20:01:39.801Z,0.50
2022-12-17T20:04:07.527Z,0.40
2022-12-17T20:06:35.328Z,0.40
2022-12-17T20:09:03.829Z,0.40
2022-12-17T20:11:37.958Z,0.40
2022-12-17T20:14:16.705Z,0.40
2022-12-17T20:16:45.571Z,0.40
2022-12-17T20:19:19.788Z,0.40
2022-12-17T20:21:47.140Z,0.40
2022-12-17T20:24:14.720Z,0.30
2022-12-17T20:26:42.485Z,0.40
2022-12-17T20:29:13.067Z,0.40
2022-12-17T20:31:43.290Z,0.40
2022-12-17T20:34:15.128Z,0.40
2022-12-17T20:36:45.172Z,0.40
2022-12-17T20:39:12.054Z,0.30
2022-12-17T20:41:39.903Z,0.47
2022-12-17T20:44:10.898Z,0.40
2022-12-17T20:46:38.286Z,0.40
2022-12-17T20:49:05.576Z,0.40
2022-12-17T20:51:32.436Z,0.40
2022-12-17T20:54:05.604Z,0.40
2022-12-17T20:56:33.986Z,0.40
2022-12-17T20:59:07.461Z,0.40
2022-12-17T21:01:36.108Z,0.50
2022-12-17T21:04:03.716Z,0.40
2022-12-17T21:06:37.549Z,0.40
2022-12-17T21:09:05.149Z,0.40
2022-12-17T21:11:34.172Z,0.40
2022-12-17T21:14:07.314Z,0.40
2022-12-17T21:16:34.568Z,0.40
2022-12-17T21:19:02.227Z,0.50
2022-12-17T21:21:31.395Z,0.40
2022-12-17T21:23:58.842Z,0.40
2022-12-17T21:26:45.468Z,0.40
2022-12-17T21:29:12.626Z,0.50
2022-12-17T21:31:43.586Z,0.40
2022-12-17T21:36:40.609Z,0.50
2022-12-17T21:39:12.033Z,0.40
2022-12-17T21:41:44.497Z,0.40
2022-12-17T21:44:15.104Z,0.40
2022-12-17T21:46:50.124Z,0.35
2022-12-17T21:49:17.192Z,0.50
2022-12-17T21:51:44.213Z,0.40
2022-12-17T21:54:17.291Z,0.30
2022-12-17T21:56:46.298Z,0.50
2022-12-17T21:59:12.939Z,0.40
2022-12-17T22:01:39.591Z,0.40
2022-12-17T22:04:06.289Z,0.50
2022-12-17T22:06:48.354Z,0.37
2022-12-17T22:09:34.218Z,0.40
2022-12-17T22:12:10.924Z,0.40
2022-12-17T22:14:37.581Z,0.50
2022-12-17T22:17:04.188Z,0.40
2022-12-17T22:19:30.689Z,0.40
2022-12-17T22:21:57.922Z,0.40
2022-12-17T22:24:25.620Z,0.30
2022-12-17T22:26:52.244Z,0.50
2022-12-17T22:29:18.747Z,0.40
2022-12-17T22:31:45.266Z,0.40
2022-12-17T22:34:53.913Z,0.40
2022-12-17T22:40:08.114Z,0.40
2022-12-17T22:44:30.449Z,0.40
2022-12-17T22:44:42.605Z,0.33
2022-12-17T22:45:19.797Z,0.30
2022-12-17T22:47:49.709Z,0.50
2022-12-17T22:50:16.366Z,0.40
2022-12-17T22:52:43.612Z,0.40
2022-12-17T22:55:10.542Z,0.50
2022-12-17T22:57:38.686Z,0.50
2022-12-17T23:00:14.400Z,0.40
2022-12-17T23:02:40.976Z,0.30
2022-12-17T23:05:07.693Z,0.40
2022-12-17T23:07:34.646Z,0.40
2022-12-17T23:10:01.220Z,0.50
2022-12-17T23:12:27.836Z,0.30
2022-12-17T23:14:54.416Z,0.40
2022-12-17T23:17:21.035Z,0.40
2022-12-17T23:19:47.565Z,0.40
2022-12-17T23:22:20.427Z,0.40
2022-12-17T23:24:49.002Z,0.40
2022-12-17T23:27:15.529Z,0.50
2022-12-17T23:29:42.143Z,0.40
2022-12-17T23:32:08.626Z,0.40
2022-12-17T23:34:35.284Z,0.40
2022-12-17T23:37:01.878Z,0.37
2022-12-17T23:39:28.571Z,0.40
2022-12-17T23:41:55.175Z,0.50
2022-12-17T23:44:21.889Z,0.40
2022-12-17T23:46:48.513Z,0.40
2022-12-17T23:49:15.192Z,0.40
2022-12-17T23:51:41.888Z,0.40
2022-12-17T23:54:08.452Z,0.40
2022-12-17T23:56:35.167Z,0.40
2022-12-17T23:59:02.204Z,0.30
